Time;durP1;ratioP1;P1;durP2;ratioP2;P2;SDS_P1;SDS_P2;PMS_P1;PMS_P2;Temp;Humidity;BMP_temperature;BMP_pressure;BME280_temperature;BME280_humidity;BME280_pressure;Samples;Min_cycle;Max_cycle;Signal;HPM_P1;HPM_P2
2022/06/18 00:00:14;;;;;;;2.43;1.43;;;18.80;66.00;;;;;;5050673;28;20660;-89
2022/06/18 00:02:42;;;;;;;3.80;1.80;;;18.80;65.90;;;;;;5050937;28;20657;-88
2022/06/18 00:05:11;;;;;;;1.50;1.40;;;18.90;65.40;;;;;;5051194;28;20668;-88
2022/06/18 00:07:44;;;;;;;2.00;1.70;;;19.00;64.50;;;;;;5050531;28;20910;-88
2022/06/18 00:10:16;;;;;;;1.87;1.77;;;19.00;64.90;;;;;;5050885;28;20974;-88
2022/06/18 00:15:35;;;;;;;6.73;1.53;;;18.90;64.30;;;;;;5050593;28;20976;-88
2022/06/18 00:18:03;;;;;;;2.00;1.90;;;18.90;64.90;;;;;;5050424;28;20659;-87
2022/06/18 00:20:35;;;;;;;1.57;1.47;;;19.00;64.70;;;;;;5050701;28;20827;-88
2022/06/18 00:23:04;;;;;;;1.40;1.30;;;19.00;65.20;;;;;;5049705;28;20610;-89
2022/06/18 00:25:35;;;;;;;1.67;1.57;;;19.00;64.90;;;;;;5050498;28;20626;-89
2022/06/18 00:28:04;;;;;;;3.27;1.80;;;19.00;64.40;;;;;;5050187;28;20614;-87
2022/06/18 00:30:31;;;;;;;2.80;1.90;;;18.90;66.00;;;;;;5050302;28;20620;-88
2022/06/18 00:32:59;;;;;;;2.03;1.83;;;18.90;67.20;;;;;;5050739;28;20612;-88
2022/06/18 00:35:26;;;;;;;2.23;2.13;;;18.80;67.80;;;;;;5050290;28;20642;-89
2022/06/18 00:37:59;;;;;;;1.37;1.23;;;18.80;65.60;;;;;;5050569;28;20615;-88
2022/06/18 00:40:29;;;;;;;2.13;1.70;;;18.80;67.40;;;;;;5051284;28;20724;-88
2022/06/18 00:42:59;;;;;;;1.80;1.70;;;18.80;65.30;;;;;;5050268;28;20608;-88
2022/06/18 00:45:29;;;;;;;2.97;1.90;;;16.40;61.30;;;;;;5050205;28;20624;-88
2022/06/18 00:48:04;;;;;;;1.83;1.70;;;18.90;65.00;;;;;;5049799;28;20656;-88
2022/06/18 00:50:38;;;;;;;1.30;1.20;;;18.90;66.40;;;;;;5050215;28;21218;-88
2022/06/18 00:53:13;;;;;;;2.30;2.10;;;18.90;64.60;;;;;;5049939;28;20614;-89
2022/06/18 00:55:45;;;;;;;1.70;1.60;;;18.80;64.20;;;;;;5049845;28;21047;-88
2022/06/18 00:58:18;;;;;;;2.10;1.90;;;18.80;65.50;;;;;;5050202;28;21171;-88
2022/06/18 01:00:48;;;;;;;1.30;1.20;;;18.80;65.80;;;;;;5049238;28;21156;-88
2022/06/18 01:03:25;;;;;;;2.77;1.37;;;18.80;65.20;;;;;;5048935;28;20602;-88
2022/06/18 01:05:53;;;;;;;2.00;1.80;;;18.80;65.50;;;;;;5047904;28;20614;-88
2022/06/18 01:08:25;;;;;;;2.00;1.80;;;18.80;67.60;;;;;;5049957;28;20614;-88
2022/06/18 01:10:55;;;;;;;1.97;1.73;;;18.70;67.90;;;;;;5050125;28;20617;-88
2022/06/18 01:13:27;;;;;;;1.93;1.73;;;18.70;67.50;;;;;;5049547;28;21033;-89
2022/06/18 01:15:56;;;;;;;1.20;1.20;;;18.70;65.60;;;;;;5048972;28;21207;-89
2022/06/18 01:18:24;;;;;;;1.50;1.40;;;18.70;65.80;;;;;;5049769;28;20617;-88
2022/06/18 01:20:56;;;;;;;1.53;1.43;;;18.60;65.20;;;;;;5049011;28;20626;-88
2022/06/18 01:23:34;;;;;;;2.10;1.83;;;18.70;64.90;;;;;;5048795;28;20644;-89
2022/06/18 01:26:03;;;;;;;1.43;1.30;;;18.70;64.40;;;;;;5049227;28;20637;-88
2022/06/18 01:28:30;;;;;;;1.30;1.30;;;18.70;64.30;;;;;;5049154;28;20598;-88
2022/06/18 01:30:58;;;;;;;2.33;1.77;;;18.60;65.20;;;;;;5049831;28;20642;-88
2022/06/18 01:33:26;;;;;;;1.50;1.40;;;18.70;64.60;;;;;;5049592;28;20610;-87
2022/06/18 01:35:55;;;;;;;1.80;1.43;;;18.70;65.10;;;;;;5048985;28;20645;-87
2022/06/18 01:38:25;;;;;;;1.40;1.30;;;18.70;64.40;;;;;;5048825;28;20613;-88
2022/06/18 01:40:56;;;;;;;2.00;1.53;;;18.60;66.50;;;;;;5049081;28;20675;-88
2022/06/18 01:43:26;;;;;;;1.37;1.30;;;18.50;63.30;;;;;;5048885;28;20672;-88
2022/06/18 01:45:59;;;;;;;1.30;1.20;;;18.60;63.80;;;;;;5048994;28;20606;-88
2022/06/18 01:48:32;;;;;;;2.53;1.60;;;18.60;64.40;;;;;;5048821;28;21191;-88
2022/06/18 01:51:05;;;;;;;1.50;1.40;;;18.60;63.70;;;;;;5049134;28;20642;-88
2022/06/18 01:53:38;;;;;;;1.70;1.30;;;18.60;63.20;;;;;;5048976;28;20602;-88
2022/06/18 01:56:10;;;;;;;1.53;1.10;;;18.60;63.60;;;;;;5048135;28;20646;-88
2022/06/18 01:58:45;;;;;;;1.80;1.70;;;18.60;63.20;;;;;;5048968;28;20610;-88
2022/06/18 02:01:18;;;;;;;2.07;1.53;;;18.60;62.80;;;;;;5048732;28;20617;-86
2022/06/18 02:03:45;;;;;;;1.50;1.40;;;18.60;61.90;;;;;;5048695;28;20649;-88
2022/06/18 02:06:12;;;;;;;1.50;1.40;;;18.60;61.40;;;;;;5048800;28;21164;-88
2022/06/18 02:08:39;;;;;;;1.40;1.30;;;18.60;61.90;;;;;;5048761;28;20633;-87
2022/06/18 02:11:08;;;;;;;1.37;1.27;;;18.60;63.30;;;;;;5049236;28;20606;-87
2022/06/18 02:13:39;;;;;;;2.10;1.60;;;18.60;63.30;;;;;;5048533;28;21156;-88
2022/06/18 02:16:17;;;;;;;1.40;1.30;;;18.50;62.20;;;;;;5047239;28;20646;-88
2022/06/18 02:18:46;;;;;;;1.60;1.50;;;18.50;62.80;;;;;;5048640;28;20626;-88
2022/06/18 02:21:14;;;;;;;1.23;1.10;;;18.50;62.70;;;;;;5047684;28;20620;-88
2022/06/18 02:23:41;;;;;;;1.60;1.50;;;18.50;62.40;;;;;;5048457;28;20621;-88
2022/06/18 02:26:11;;;;;;;1.43;1.33;;;18.50;62.20;;;;;;5047941;28;20610;-88
2022/06/18 02:28:42;;;;;;;1.93;1.60;;;18.60;63.20;;;;;;5048546;28;20599;-88
2022/06/18 02:31:15;;;;;;;2.03;1.90;;;18.50;62.50;;;;;;5048375;28;20614;-86
2022/06/18 02:33:46;;;;;;;1.37;1.27;;;18.40;62.00;;;;;;5048701;28;20757;-88
2022/06/18 02:36:16;;;;;;;1.70;1.60;;;18.40;62.50;;;;;;5047845;28;20658;-88
2022/06/18 02:38:45;;;;;;;2.17;1.40;;;18.50;62.50;;;;;;5048011;28;20745;-88
2022/06/18 02:41:12;;;;;;;1.53;1.43;;;18.50;62.40;;;;;;5048504;28;20658;-88
2022/06/18 02:43:43;;;;;;;1.93;1.83;;;18.50;62.30;;;;;;5048768;28;20896;-88
2022/06/18 02:46:11;;;;;;;1.60;1.50;;;18.40;62.70;;;;;;5047902;28;20613;-88
2022/06/18 02:48:39;;;;;;;1.87;1.60;;;18.40;62.30;;;;;;5048243;28;20594;-88
2022/06/18 02:51:07;;;;;;;2.17;1.97;;;18.40;61.60;;;;;;5047734;28;21196;-87
2022/06/18 02:53:34;;;;;;;1.37;1.27;;;18.30;61.10;;;;;;5048082;28;20606;-88
2022/06/18 02:56:04;;;;;;;1.63;1.53;;;18.40;61.60;;;;;;5047811;28;20719;-88
2022/06/18 02:58:33;;;;;;;1.80;1.70;;;18.40;61.50;;;;;;5048340;28;20987;-88
2022/06/18 03:01:04;;;;;;;1.60;1.50;;;18.40;61.80;;;;;;5048444;28;20729;-88
2022/06/18 03:03:33;;;;;;;1.37;1.27;;;18.30;61.90;;;;;;5047550;28;20626;-88
2022/06/18 03:06:00;;;;;;;1.30;1.20;;;18.40;61.90;;;;;;5047851;28;20721;-87
2022/06/18 03:08:29;;;;;;;1.50;1.40;;;18.30;62.30;;;;;;5047555;28;20703;-88
2022/06/18 03:13:41;;;;;;;1.70;1.60;;;18.20;62.50;;;;;;5048032;28;20599;-88
2022/06/18 03:16:12;;;;;;;1.93;1.80;;;18.20;62.10;;;;;;5047033;28;20758;-88
2022/06/18 03:18:41;;;;;;;1.70;1.60;;;18.20;62.00;;;;;;5047984;28;20626;-88
2022/06/18 03:21:21;;;;;;;1.87;1.70;;;18.20;62.90;;;;;;5047537;28;20614;-89
2022/06/18 03:23:48;;;;;;;1.60;1.37;;;18.10;63.20;;;;;;5047660;28;20644;-88
2022/06/18 03:26:16;;;;;;;1.47;1.37;;;18.10;62.90;;;;;;5047905;28;20956;-88
2022/06/18 03:28:43;;;;;;;1.43;1.33;;;18.10;63.70;;;;;;5051733;28;20668;-87
2022/06/18 03:31:13;;;;;;;1.70;1.60;;;18.10;63.00;;;;;;5051923;28;20625;-87
2022/06/18 03:33:41;;;;;;;2.43;1.90;;;18.10;64.10;;;;;;5052064;28;21087;-87
2022/06/18 03:36:10;;;;;;;1.70;1.60;;;18.00;64.20;;;;;;5051244;28;20743;-88
2022/06/18 03:38:37;;;;;;;1.50;1.40;;;18.00;63.60;;;;;;5051672;28;20622;-88
2022/06/18 03:41:04;;;;;;;1.70;1.60;;;18.00;64.20;;;;;;5051206;28;21258;-86
2022/06/18 03:43:31;;;;;;;1.50;1.40;;;18.00;64.40;;;;;;5051565;28;20624;-88
2022/06/18 03:46:01;;;;;;;2.40;1.80;;;18.00;63.90;;;;;;5051329;28;21041;-88
2022/06/18 03:48:33;;;;;;;1.43;1.33;;;18.00;64.90;;;;;;5051575;28;20660;-87
2022/06/18 03:50:59;;;;;;;2.23;1.50;;;18.00;64.80;;;;;;5051263;28;20629;-86
2022/06/18 03:53:26;;;;;;;1.77;1.27;;;17.80;67.00;;;;;;5050541;28;20623;-88
2022/06/18 03:55:53;;;;;;;1.50;1.40;;;17.80;66.50;;;;;;5051150;28;20743;-89
2022/06/18 03:58:20;;;;;;;2.30;2.10;;;17.70;67.30;;;;;;5051198;28;20624;-87
2022/06/18 04:00:48;;;;;;;1.80;1.70;;;17.60;68.10;;;;;;5051237;28;21012;-88
2022/06/18 04:03:15;;;;;;;1.37;1.27;;;17.60;68.70;;;;;;5051160;28;20610;-86
2022/06/18 04:05:44;;;;;;;1.63;1.53;;;17.60;69.20;;;;;;5050996;28;20699;-88
2022/06/18 04:08:13;;;;;;;2.50;2.30;;;17.60;69.90;;;;;;5050439;28;20684;-87
2022/06/18 04:10:40;;;;;;;1.60;1.50;;;17.80;69.40;;;;;;5050974;28;20630;-88
2022/06/18 04:13:08;;;;;;;1.50;1.40;;;17.60;69.50;;;;;;5051177;28;20691;-88
2022/06/18 04:15:35;;;;;;;1.63;1.53;;;17.60;71.50;;;;;;5050364;28;20630;-87
2022/06/18 04:18:02;;;;;;;1.63;1.53;;;17.60;71.10;;;;;;5050624;28;20735;-87
2022/06/18 04:20:34;;;;;;;1.83;1.60;;;17.50;71.70;;;;;;5050567;28;20720;-89
2022/06/18 04:23:03;;;;;;;1.40;1.30;;;17.70;71.80;;;;;;5050237;28;20621;-88
2022/06/18 04:25:31;;;;;;;1.73;1.63;;;17.80;72.00;;;;;;5050830;28;20718;-87
2022/06/18 04:27:58;;;;;;;2.13;1.97;;;17.80;72.00;;;;;;5050151;28;20602;-87
2022/06/18 04:30:27;;;;;;;2.40;2.20;;;17.80;71.70;;;;;;5050910;28;20621;-88
2022/06/18 04:33:02;;;;;;;2.60;1.90;;;17.90;72.00;;;;;;5050134;28;20609;-88
2022/06/18 04:35:29;;;;;;;1.93;1.83;;;18.00;72.20;;;;;;5050474;28;21225;-88
2022/06/18 04:37:56;;;;;;;2.03;1.87;;;18.00;73.00;;;;;;5049341;28;20642;-87
2022/06/18 04:40:32;;;;;;;2.83;2.20;;;18.00;73.60;;;;;;5050276;28;20629;-87
2022/06/18 04:42:59;;;;;;;1.83;1.73;;;18.10;73.30;;;;;;5050401;28;20993;-88
2022/06/18 04:45:26;;;;;;;2.10;2.00;;;18.00;73.70;;;;;;5052795;28;20657;-88
2022/06/18 04:47:53;;;;;;;1.90;1.80;;;18.10;74.80;;;;;;5049665;28;20626;-88
2022/06/18 04:50:23;;;;;;;1.70;1.60;;;18.10;73.40;;;;;;5050527;28;21035;-87
2022/06/18 04:52:50;;;;;;;1.83;1.73;;;18.20;73.70;;;;;;5050955;28;20610;-88
2022/06/18 04:55:19;;;;;;;2.17;2.00;;;18.30;73.00;;;;;;5050423;28;20669;-87
2022/06/18 04:57:48;;;;;;;2.00;1.90;;;18.30;71.90;;;;;;5049743;28;20625;-88
2022/06/18 05:00:16;;;;;;;2.00;1.90;;;18.40;70.70;;;;;;5050063;28;21160;-87
2022/06/18 05:02:44;;;;;;;1.57;1.47;;;;;;;;;;5050155;28;20652;-88
2022/06/18 05:05:14;;;;;;;1.93;1.83;;;18.50;70.90;;;;;;5050545;28;20618;-87
2022/06/18 05:07:41;;;;;;;2.57;2.40;;;18.60;71.60;;;;;;5049917;28;20599;-88
2022/06/18 05:10:09;;;;;;;1.87;1.63;;;18.70;71.70;;;;;;5050318;28;20625;-88
2022/06/18 05:12:36;;;;;;;2.10;1.93;;;18.70;72.00;;;;;;5050027;28;20626;-87
2022/06/18 05:15:05;;;;;;;1.83;1.73;;;18.80;71.70;;;;;;5049797;28;20740;-88
2022/06/18 05:17:36;;;;;;;1.70;1.60;;;19.00;71.10;;;;;;5049509;28;21207;-87
2022/06/18 05:20:04;;;;;;;1.50;1.40;;;19.20;69.80;;;;;;5049968;28;20636;-88
2022/06/18 05:22:32;;;;;;;1.67;1.57;;;19.30;68.10;;;;;;5049009;28;20668;-87
2022/06/18 05:24:59;;;;;;;3.27;1.90;;;19.40;67.40;;;;;;5049385;28;20725;-88
2022/06/18 05:27:28;;;;;;;2.00;1.90;;;19.60;67.50;;;;;;5049205;28;20622;-88
2022/06/18 05:29:56;;;;;;;1.93;1.80;;;19.70;66.20;;;;;;5049721;28;21134;-88
2022/06/18 05:32:24;;;;;;;2.20;1.83;;;19.70;66.80;;;;;;5049444;28;20610;-88
2022/06/18 05:34:51;;;;;;;1.83;1.67;;;19.90;66.80;;;;;;5049140;28;20637;-88
2022/06/18 05:37:20;;;;;;;1.80;1.50;;;19.90;67.30;;;;;;5048846;28;20752;-88
2022/06/18 05:39:47;;;;;;;2.53;2.10;;;19.90;66.60;;;;;;5048790;28;20725;-87
2022/06/18 05:42:14;;;;;;;1.70;1.60;;;20.10;67.40;;;;;;5049184;28;20676;-88
2022/06/18 05:44:41;;;;;;;2.20;2.00;;;20.20;67.60;;;;;;5049294;28;20650;-88
2022/06/18 05:47:14;;;;;;;3.20;2.20;;;20.20;67.10;;;;;;5048707;28;20622;-88
2022/06/18 05:49:42;;;;;;;2.17;2.03;;;20.30;67.20;;;;;;5048994;28;20626;-89
2022/06/18 05:52:09;;;;;;;2.47;2.10;;;20.40;65.60;;;;;;5049125;28;20626;-87
2022/06/18 05:54:36;;;;;;;2.47;2.03;;;20.50;64.50;;;;;;5048637;28;21141;-88
2022/06/18 05:57:04;;;;;;;1.47;1.37;;;20.60;64.00;;;;;;5048595;28;20746;-88
2022/06/18 05:59:31;;;;;;;1.93;1.73;;;20.80;64.60;;;;;;5049104;28;20626;-88
2022/06/18 06:01:58;;;;;;;2.30;1.87;;;20.80;65.80;;;;;;5048712;28;20887;-88
2022/06/18 06:04:27;;;;;;;1.50;1.40;;;20.90;65.80;;;;;;5048584;28;21261;-88
2022/06/18 06:06:55;;;;;;;2.47;2.27;;;21.00;64.60;;;;;;5047951;28;21149;-89
2022/06/18 06:12:10;;;;;;;1.70;1.60;;;21.20;63.50;;;;;;5048197;28;20741;-88
2022/06/18 06:14:37;;;;;;;2.43;2.23;;;21.30;62.50;;;;;;5048628;28;21002;-89
2022/06/18 06:17:04;;;;;;;2.70;2.50;;;21.40;63.00;;;;;;5048215;28;20630;-89
2022/06/18 06:19:32;;;;;;;5.30;2.23;;;21.50;62.90;;;;;;5048304;28;20608;-88
2022/06/18 06:22:00;;;;;;;2.27;2.10;;;21.50;63.00;;;;;;5047617;28;21196;-88
2022/06/18 06:24:27;;;;;;;2.23;2.07;;;21.60;63.70;;;;;;5048102;28;21210;-88
2022/06/18 06:26:54;;;;;;;2.37;2.23;;;21.90;61.80;;;;;;5048094;28;20603;-89
2022/06/18 06:29:20;;;;;;;2.13;1.93;;;21.80;62.20;;;;;;5048240;28;20672;-89
2022/06/18 06:31:47;;;;;;;2.80;2.30;;;21.90;62.40;;;;;;5048149;28;20663;-89
2022/06/18 06:34:15;;;;;;;2.10;2.00;;;;;;;;;;5048415;28;20614;-87
2022/06/18 06:36:42;;;;;;;2.53;2.33;;;22.20;60.70;;;;;;5047983;28;20642;-89
2022/06/18 06:39:10;;;;;;;2.60;2.23;;;22.20;61.70;;;;;;5048210;28;21234;-88
2022/06/18 06:41:37;;;;;;;2.93;2.73;;;22.30;61.90;;;;;;5048321;28;20622;-88
2022/06/18 06:44:05;;;;;;;2.73;2.33;;;22.40;61.40;;;;;;5048207;28;20642;-88
2022/06/18 06:46:32;;;;;;;2.60;2.40;;;;;;;;;;5047971;28;20668;-87
2022/06/18 06:48:59;;;;;;;3.37;3.07;;;22.60;61.80;;;;;;5048086;28;20674;-88
2022/06/18 06:51:29;;;;;;;2.73;2.60;;;22.70;62.20;;;;;;5048200;28;20606;-87
2022/06/18 06:53:56;;;;;;;2.73;2.50;;;22.80;61.50;;;;;;5048278;28;20610;-89
2022/06/18 06:59:10;;;;;;;2.40;2.20;;;23.00;59.70;;;;;;5047935;28;20948;-90
2022/06/18 07:01:38;;;;;;;2.57;2.37;;;23.10;59.10;;;;;;5049022;28;20624;-89
2022/06/18 07:04:07;;;;;;;2.47;2.27;;;23.10;59.30;;;;;;5051942;28;20653;-89
2022/06/18 07:06:35;;;;;;;2.57;2.37;;;23.20;59.60;;;;;;5052063;28;20634;-90
2022/06/18 07:09:03;;;;;;;2.60;2.40;;;23.30;59.10;;;;;;5052140;28;20613;-89
2022/06/18 07:11:33;;;;;;;2.27;2.13;;;23.60;59.10;;;;;;5051283;28;20656;-90
2022/06/18 07:14:00;;;;;;;2.80;2.60;;;23.50;59.20;;;;;;5052405;28;20629;-90
2022/06/18 07:16:27;;;;;;;1.93;1.83;;;23.60;58.70;;;;;;5051758;28;21231;-89
2022/06/18 07:18:55;;;;;;;2.33;2.13;;;23.70;58.70;;;;;;5052223;28;20612;-90
2022/06/18 07:21:22;;;;;;;2.73;2.53;;;23.80;58.80;;;;;;5050963;28;20703;-89
2022/06/18 07:23:50;;;;;;;2.80;2.50;;;23.90;59.70;;;;;;5051784;28;20648;-88
2022/06/18 07:26:19;;;;;;;2.53;2.33;;;23.90;57.80;;;;;;5051115;28;20713;-90
2022/06/18 07:28:48;;;;;;;2.10;2.00;;;24.00;58.80;;;;;;5052167;28;20602;-90
2022/06/18 07:31:25;;;;;;;2.43;2.33;;;24.10;58.10;;;;;;5051411;28;21195;-89
2022/06/18 07:33:52;;;;;;;2.07;1.97;;;24.20;58.60;;;;;;5051574;28;20618;-89
2022/06/18 07:36:19;;;;;;;2.40;2.10;;;24.40;58.60;;;;;;5050928;28;20653;-89
2022/06/18 07:38:46;;;;;;;2.57;2.40;;;24.50;58.70;;;;;;5051276;28;21214;-88
2022/06/18 07:41:16;;;;;;;2.30;2.10;;;24.60;57.60;;;;;;5051320;28;20610;-87
2022/06/18 07:43:45;;;;;;;2.40;2.20;;;24.70;57.90;;;;;;5051592;28;20626;-88
2022/06/18 07:46:13;;;;;;;5.10;2.10;;;24.70;56.80;;;;;;5051165;28;20626;-86
2022/06/18 07:48:41;;;;;;;1.67;1.57;;;24.80;57.40;;;;;;5051373;28;21014;-88
2022/06/18 07:51:09;;;;;;;2.03;1.93;;;25.00;56.70;;;;;;5050824;28;20630;-88
2022/06/18 07:53:36;;;;;;;1.97;1.87;;;25.10;56.70;;;;;;5051412;28;21031;-87
2022/06/18 07:56:04;;;;;;;2.47;2.27;;;25.20;54.80;;;;;;5050880;28;20780;-88
2022/06/18 07:58:31;;;;;;;2.67;2.47;;;25.30;56.20;;;;;;5051114;28;20625;-87
2022/06/18 08:00:59;;;;;;;2.23;2.13;;;25.50;54.30;;;;;;5051224;28;21018;-89
2022/06/18 08:03:27;;;;;;;2.30;2.10;;;25.50;55.50;;;;;;5050526;28;20629;-88
2022/06/18 08:05:56;;;;;;;1.97;1.87;;;25.70;56.30;;;;;;5050676;28;20637;-87
2022/06/18 08:08:24;;;;;;;2.43;2.27;;;;;;;;;;5050947;28;20622;-87
2022/06/18 08:10:53;;;;;;;2.20;2.10;;;25.90;53.40;;;;;;5051010;28;20606;-87
2022/06/18 08:13:20;;;;;;;1.93;1.83;;;;;;;;;;5050010;28;20614;-88
2022/06/18 08:15:48;;;;;;;2.07;1.87;;;;;;;;;;5051375;28;20610;-91
2022/06/18 08:18:15;;;;;;;1.80;1.70;;;26.30;51.40;;;;;;5050689;28;20649;-91
2022/06/18 08:20:45;;;;;;;2.07;1.97;;;26.30;51.70;;;;;;5050719;28;21214;-91
2022/06/18 08:23:13;;;;;;;1.57;1.47;;;;;;;;;;5050983;28;20608;-90
2022/06/18 08:25:42;;;;;;;1.67;1.57;;;26.10;50.00;;;;;;5050904;28;20629;-89
2022/06/18 08:28:11;;;;;;;2.23;1.70;;;26.70;49.90;;;;;;5050486;28;20699;-91
2022/06/18 08:30:41;;;;;;;2.60;2.40;;;;;;;;;;5051226;28;20618;-91
2022/06/18 08:33:08;;;;;;;2.70;2.03;;;26.80;49.60;;;;;;5050878;28;20716;-88
2022/06/18 08:35:37;;;;;;;2.00;1.90;;;27.00;51.30;;;;;;5050303;28;20695;-89
2022/06/18 08:38:08;;;;;;;1.83;1.73;;;27.10;49.50;;;;;;5050132;28;20649;-90
2022/06/18 08:40:56;;;;;;;1.73;1.63;;;27.10;49.00;;;;;;5036301;28;20614;-88
2022/06/18 08:44:12;;;;;;;2.30;2.10;;;27.10;49.30;;;;;;5049963;28;20633;-89
2022/06/18 08:46:52;;;;;;;1.73;1.63;;;27.30;50.60;;;;;;5050368;28;20667;-92
2022/06/18 08:49:33;;;;;;;1.67;1.57;;;27.30;50.00;;;;;;5049994;28;20649;-89
2022/06/18 08:52:16;;;;;;;1.83;1.73;;;27.20;50.90;;;;;;5050376;28;20598;-88
2022/06/18 08:54:51;;;;;;;1.20;1.10;;;27.10;50.90;;;;;;5050106;28;20727;-89
2022/06/18 08:57:25;;;;;;;1.90;1.80;;;27.20;49.60;;;;;;5050406;28;20653;-89
2022/06/18 09:00:04;;;;;;;1.50;1.40;;;27.30;48.40;;;;;;5049995;28;20650;-92
2022/06/18 09:02:37;;;;;;;2.47;1.80;;;27.50;48.30;;;;;;5050211;28;21183;-90
2022/06/18 09:05:14;;;;;;;1.47;1.30;;;27.80;46.70;;;;;;5049595;28;20622;-90
2022/06/18 09:08:07;;;;;;;1.83;1.73;;;27.50;47.10;;;;;;5050200;28;20602;-89
2022/06/18 09:10:53;;;;;;;3.33;1.97;;;28.00;48.80;;;;;;5050057;28;20602;-89
2022/06/18 09:13:22;;;;;;;1.70;1.60;;;28.10;49.80;;;;;;5049667;28;20625;-90
2022/06/18 09:15:54;;;;;;;1.73;1.63;;;28.10;48.20;;;;;;5049696;28;20633;-89
2022/06/18 09:18:23;;;;;;;1.90;1.80;;;28.00;48.00;;;;;;5049551;28;20702;-89
2022/06/18 09:20:54;;;;;;;1.90;1.80;;;28.30;47.80;;;;;;5049135;28;20629;-88
2022/06/18 09:23:26;;;;;;;2.17;1.97;;;28.20;48.30;;;;;;5049423;28;20610;-90
2022/06/18 09:25:57;;;;;;;1.97;1.87;;;28.50;47.40;;;;;;5048577;28;20626;-90
2022/06/18 09:28:27;;;;;;;1.70;1.60;;;28.60;47.80;;;;;;5049530;28;20709;-90
2022/06/18 09:31:00;;;;;;;1.73;1.30;;;28.80;48.50;;;;;;5049575;28;20680;-90
2022/06/18 09:33:33;;;;;;;1.77;1.67;;;28.90;46.40;;;;;;5049360;28;20650;-90
2022/06/18 09:36:08;;;;;;;1.67;1.57;;;29.00;47.20;;;;;;5049250;28;21306;-89
2022/06/18 09:38:40;;;;;;;1.27;1.17;;;29.20;45.60;;;;;;5049344;28;20656;-91
2022/06/18 09:41:15;;;;;;;1.23;1.20;;;29.30;42.80;;;;;;5049415;28;20650;-89
2022/06/18 09:43:51;;;;;;;1.33;1.23;;;29.30;43.50;;;;;;5049061;28;20663;-89
2022/06/18 09:46:23;;;;;;;1.20;1.10;;;29.60;41.70;;;;;;5049061;28;20617;-91
2022/06/18 09:48:50;;;;;;;1.70;1.60;;;;;;;;;;5049135;28;20630;-90
2022/06/18 09:51:24;;;;;;;1.60;1.50;;;29.40;40.40;;;;;;5049094;28;20669;-90
2022/06/18 09:53:52;;;;;;;1.80;1.70;;;29.70;42.90;;;;;;5048749;28;21172;-90
2022/06/18 09:56:28;;;;;;;1.80;1.50;;;29.60;43.40;;;;;;5049053;28;20632;-90
2022/06/18 09:58:59;;;;;;;1.73;1.63;;;29.80;42.60;;;;;;5049349;28;20609;-89
2022/06/18 10:01:34;;;;;;;1.63;1.53;;;29.70;43.10;;;;;;5049071;28;20606;-91
2022/06/18 10:06:55;;;;;;;1.70;1.60;;;30.10;47.40;;;;;;5049045;28;20599;-91
2022/06/18 10:09:27;;;;;;;1.97;1.83;;;30.20;43.70;;;;;;5048717;28;20609;-90
2022/06/18 10:11:56;;;;;;;1.77;1.67;;;30.40;43.20;;;;;;5049121;28;20664;-90
2022/06/18 10:14:24;;;;;;;2.13;1.93;;;30.50;43.00;;;;;;5049021;28;20618;-90
2022/06/18 10:17:06;;;;;;;1.30;1.20;;;30.50;43.30;;;;;;5048081;28;20634;-91
2022/06/18 10:19:45;;;;;;;1.97;1.87;;;30.60;42.00;;;;;;5049306;28;20609;-91
2022/06/18 10:22:31;;;;;;;1.80;1.70;;;30.60;42.60;;;;;;5049044;28;20626;-90
2022/06/18 10:25:07;;;;;;;1.57;1.47;;;30.90;41.50;;;;;;5048410;28;21269;-91
2022/06/18 10:27:42;;;;;;;1.47;1.37;;;30.80;41.70;;;;;;5048381;28;21187;-92
2022/06/18 10:30:15;;;;;;;1.17;1.07;;;30.90;40.90;;;;;;5048529;28;20609;-91
2022/06/18 10:32:53;;;;;;;0.93;0.93;;;31.10;39.50;;;;;;5049076;28;21009;-92
2022/06/18 10:35:31;;;;;;;1.37;1.27;;;31.20;40.20;;;;;;5048453;28;20620;-92
2022/06/18 10:38:11;;;;;;;1.87;1.77;;;31.40;43.10;;;;;;5048455;28;20633;-90
2022/06/18 10:40:46;;;;;;;1.20;1.20;;;31.50;41.90;;;;;;5035152;28;21263;-92
2022/06/18 10:43:37;;;;;;;1.57;1.47;;;31.80;42.20;;;;;;5048645;28;20617;-91
2022/06/18 10:46:08;;;;;;;2.20;1.50;;;31.90;42.00;;;;;;5047817;28;20737;-90
2022/06/18 10:48:36;;;;;;;1.40;1.30;;;31.90;39.60;;;;;;5048867;28;20658;-92
2022/06/18 10:51:04;;;;;;;1.70;1.60;;;31.90;40.20;;;;;;5048609;28;20630;-92
2022/06/18 10:53:45;;;;;;;1.90;1.80;;;32.30;39.30;;;;;;5048601;28;20625;-91
2022/06/18 10:56:17;;;;;;;1.80;1.70;;;32.20;39.80;;;;;;5048169;28;20605;-91
2022/06/18 10:58:51;;;;;;;1.77;1.67;;;32.30;39.10;;;;;;5048124;28;20642;-91
2022/06/18 11:01:25;;;;;;;1.00;1.00;;;32.70;37.00;;;;;;5048412;28;20656;-91
2022/06/18 11:03:58;;;;;;;1.60;1.50;;;32.60;37.60;;;;;;5049439;28;20633;-92
2022/06/18 11:06:25;;;;;;;1.47;1.37;;;;;;;;;;5048851;28;20666;-91
2022/06/18 11:08:55;;;;;;;3.43;1.47;;;33.00;39.60;;;;;;5050140;28;20602;-91
2022/06/18 11:11:25;;;;;;;1.60;1.50;;;33.40;38.60;;;;;;5049294;28;20622;-90
2022/06/18 11:13:54;;;;;;;2.83;1.73;;;33.30;39.00;;;;;;5048421;28;20624;-90
2022/06/18 11:16:24;;;;;;;2.07;1.67;;;33.50;37.40;;;;;;5047757;28;20622;-90
2022/06/18 11:18:54;;;;;;;2.10;2.00;;;33.80;38.70;;;;;;5048982;28;20649;-90
2022/06/18 11:21:30;;;;;;;2.10;1.90;;;33.80;39.80;;;;;;5047592;28;20633;-94
2022/06/18 11:24:02;;;;;;;2.23;2.10;;;33.90;39.30;;;;;;5048264;28;20641;-91
2022/06/18 11:26:30;;;;;;;1.70;1.60;;;34.40;37.90;;;;;;5048008;28;20675;-91
2022/06/18 11:29:04;;;;;;;1.80;1.70;;;34.70;36.90;;;;;;5047936;28;20606;-89
2022/06/18 11:31:35;;;;;;;1.43;1.33;;;34.70;38.20;;;;;;5048944;28;20647;-91
2022/06/18 11:34:06;;;;;;;1.67;1.57;;;34.90;40.10;;;;;;5047934;28;21149;-90
2022/06/18 11:36:44;;;;;;;1.30;1.20;;;35.20;34.80;;;;;;5048035;28;20610;-92
2022/06/18 11:39:31;;;;;;;1.43;1.33;;;35.30;35.60;;;;;;5047706;28;21267;-92
2022/06/18 11:42:05;;;;;;;1.50;1.40;;;35.30;35.80;;;;;;5049040;28;20618;-92
2022/06/18 11:44:40;;;;;;;1.80;1.70;;;35.70;35.10;;;;;;5047564;28;20605;-90
2022/06/18 11:47:15;;;;;;;1.83;1.73;;;35.90;34.10;;;;;;5048475;28;20622;-92
2022/06/18 11:49:50;;;;;;;2.00;1.30;;;36.10;36.30;;;;;;5052921;28;20622;-91
2022/06/18 11:52:23;;;;;;;1.60;1.50;;;36.30;37.50;;;;;;5051906;28;20659;-90
2022/06/18 11:54:59;;;;;;;1.70;1.60;;;36.20;37.40;;;;;;5053257;28;20606;-93
2022/06/18 11:57:31;;;;;;;1.20;1.20;;;36.80;36.30;;;;;;5053106;28;20707;-92
2022/06/18 12:00:11;;;;;;;3.07;1.37;;;36.80;36.60;;;;;;5052681;28;20613;-90
2022/06/18 12:02:48;;;;;;;1.13;1.13;;;37.90;33.10;;;;;;5051734;28;21250;-92
2022/06/18 12:05:20;;;;;;;1.80;1.70;;;38.50;31.50;;;;;;5051197;28;20655;-92
2022/06/18 12:07:52;;;;;;;1.20;1.20;;;38.50;32.10;;;;;;5051590;28;21155;-91
2022/06/18 12:10:23;;;;;;;1.50;1.33;;;39.00;32.00;;;;;;5051234;28;20219;-92
2022/06/18 12:13:04;;;;;;;1.60;1.50;;;40.00;30.90;;;;;;5052221;28;20256;-92
2022/06/18 12:15:39;;;;;;;1.90;1.70;;;39.90;33.20;;;;;;5050776;28;20214;-93
2022/06/18 12:18:14;;;;;;;1.70;1.60;;;40.30;30.80;;;;;;5050875;28;20199;-92
2022/06/18 12:21:01;;;;;;;2.08;1.98;;;40.90;30.80;;;;;;5051541;28;20207;-93
2022/06/18 12:23:36;;;;;;;1.55;1.45;;;41.10;31.80;;;;;;5052120;28;20258;-90
2022/06/18 12:26:11;;;;;;;1.88;1.77;;;41.40;31.50;;;;;;5050638;28;20199;-91
2022/06/18 12:28:50;;;;;;;1.50;1.40;;;41.70;33.20;;;;;;5050526;28;20217;-91
2022/06/18 12:31:30;;;;;;;1.60;1.23;;;41.60;30.00;;;;;;5050765;28;20292;-91
2022/06/18 12:34:06;;;;;;;1.40;1.40;;;41.60;30.90;;;;;;5051429;28;20595;-91
2022/06/18 12:36:42;;;;;;;1.77;1.65;;;42.30;31.20;;;;;;5050582;28;20213;-93
2022/06/18 12:39:18;;;;;;;1.85;1.75;;;42.30;30.10;;;;;;5052907;28;20684;-92
2022/06/18 12:41:53;;;;;;;2.40;1.80;;;42.30;29.30;;;;;;5051029;28;20209;-92
2022/06/18 12:44:34;;;;;;;1.70;1.60;;;42.30;29.70;;;;;;5052468;28;20232;-93
2022/06/18 12:47:08;;;;;;;1.35;1.25;;;42.30;30.50;;;;;;5051638;28;20278;-93
2022/06/18 12:49:44;;;;;;;1.70;1.60;;;42.30;30.30;;;;;;5052758;28;20207;-92
2022/06/18 12:52:23;;;;;;;1.55;1.45;;;42.30;30.80;;;;;;5050725;28;20246;-93
2022/06/18 12:55:03;;;;;;;2.20;2.10;;;42.40;30.90;;;;;;5050632;28;20415;-92
2022/06/18 12:57:43;;;;;;;4.90;2.08;;;42.50;30.20;;;;;;5050655;28;20206;-91
2022/06/18 13:00:14;;;;;;;2.63;1.60;;;42.70;30.60;;;;;;5053313;28;20211;-91
2022/06/18 13:03:09;;;;;;;2.05;1.90;;;42.70;32.20;;;;;;5051286;28;20282;-92
2022/06/18 13:05:43;;;;;;;1.75;1.65;;;43.00;30.10;;;;;;5050174;28;20215;-91
2022/06/18 13:08:23;;;;;;;2.15;1.90;;;43.50;31.20;;;;;;5050431;28;20222;-92
2022/06/18 13:11:00;;;;;;;2.38;2.28;;;43.50;30.00;;;;;;5049898;28;20217;-91
2022/06/18 13:13:38;;;;;;;2.08;1.98;;;43.40;30.30;;;;;;5050224;28;20207;-91
2022/06/18 13:16:11;;;;;;;1.90;1.80;;;43.60;30.50;;;;;;5049577;28;20207;-93
2022/06/18 13:18:44;;;;;;;2.63;2.42;;;43.40;30.60;;;;;;5049666;28;20211;-90
2022/06/18 13:21:11;;;;;;;2.00;1.90;;;43.50;29.80;;;;;;5049910;28;20669;-93
2022/06/18 13:29:14;;;;;;;1.98;1.88;;;43.20;31.90;;;;;;5049759;28;20316;-93